PWSweather.com
Personal Weather Stations
Station Observations
WISCHPK61
Green Bay Schmitt Park, Green Bay, WI 54311

Green Bay Schmitt ParkGreen Bay, WI 54311

Lat: 44.514277, Lon: -87.935067

Elevation: 735

Station Type: Acu Rite Pro Weather Center model 02032C

http://greenbayweathercam.com

High Low Average
Temperature 36.9°F2.7°C 28.2°F-2.1°C 33.5°F0.8°C
Dew Point 36.4°F2.4°C 28.0°F-2.2°C 33.0°F0.6°C
Winds 3.5 mph 5.6 kmh Calm Calm Calm WSWCalm WSW
Wind Gusts 4.6 mph7.4 kmh -- 1.0 mph1.6 kmh
Humidity 99% 95% 98%
Pressure 29.20 in988.8 mb 28.85 in977.0 mb -
Precipitation 0.18 in4.6 mm - -
Hour Temp Dew Point Humidity Winds Wind Gusts Pressure Precip Precip Rate Daily Precip Total
12:00 AM 33.4°F0.8°C 32.4°F0.2°C 96% Calm Calm -- 29.05 in983.7 mb - 0.01 in0.3 mm 0.76 in19.3 mm
01:00 AM 33.1°F0.6°C 32.3°F0.2°C 97% Calm Calm -- 29.05 in983.7 mb - 0.01 in0.3 mm 0.02 in0.5 mm
02:00 AM 32.7°F0.4°C 32.5°F0.3°C 99% Calm Calm -- 29.03 in983.1 mb - 0.02 in0.5 mm 0.02 in0.5 mm
03:00 AM 33.6°F0.9°C 33.3°F0.7°C 99% Calm Calm -- 29.04 in983.4 mb - 0.03 in0.8 mm 0.05 in1.3 mm
04:00 AM 33.3°F0.7°C 32.5°F0.3°C 97% Calm Calm -- 29.01 in982.4 mb - 0.02 in0.5 mm 0.06 in1.5 mm
05:00 AM 33.1°F0.6°C 32.6°F0.3°C 98% Calm Calm -- 28.98 in981.4 mb - 0.02 in0.5 mm 0.08 in2.0 mm
06:00 AM 33.1°F0.6°C 32.9°F0.5°C 99% 1.2 mph E1.9 kmh E 1.2 mph1.9 kmh 28.95 in980.4 mb - 0.05 in1.3 mm 0.13 in3.3 mm
07:00 AM 32.9°F0.5°C 31.9°F-0.1°C 96% Calm Calm -- 28.92 in979.3 mb - 0.00 in0.0 mm 0.13 in3.3 mm
08:00 AM 32.4°F0.2°C 32.2°F0.1°C 99% Calm Calm -- 28.89 in978.3 mb - 0.00 in0.0 mm 0.13 in3.3 mm
09:00 AM 32.2°F0.1°C 30.9°F-0.6°C 95% Calm Calm -- 28.88 in978.0 mb - 0.00 in0.0 mm 0.13 in3.3 mm
10:00 AM 32.9°F0.5°C 32.7°F0.4°C 99% Calm Calm -- 28.87 in977.7 mb - 0.01 in0.3 mm 0.14 in3.6 mm
11:00 AM 34.0°F1.1°C 32.7°F0.4°C 95% Calm Calm -- 28.86 in977.3 mb - 0.02 in0.5 mm 0.16 in4.1 mm
12:00 PM 35.4°F1.9°C 35.1°F1.7°C 99% Calm Calm -- 28.85 in977.0 mb - 0.01 in0.3 mm 0.17 in4.3 mm
01:00 PM 34.0°F1.1°C 33.7°F0.9°C 99% Calm Calm -- 28.86 in977.3 mb - 0.00 in0.0 mm 0.17 in4.3 mm
02:00 PM 35.4°F1.9°C 34.9°F1.6°C 98% Calm Calm -- 28.86 in977.3 mb - 0.00 in0.0 mm 0.17 in4.3 mm
03:00 PM 36.3°F2.4°C 36.0°F2.2°C 99% Calm Calm -- 28.88 in978.0 mb - 0.00 in0.0 mm 0.17 in4.3 mm
04:00 PM 36.5°F2.5°C 36.2°F2.3°C 99% Calm Calm -- 28.91 in979.0 mb - 0.00 in0.0 mm 0.17 in4.3 mm
05:00 PM 36.9°F2.7°C 36.4°F2.4°C 98% Calm Calm -- 28.95 in980.4 mb - 0.00 in0.0 mm 0.17 in4.3 mm
06:00 PM 36.0°F2.2°C 35.5°F1.9°C 98% Calm Calm -- 28.97 in981.0 mb - 0.01 in0.3 mm 0.18 in4.6 mm
07:00 PM 34.3°F1.3°C 34.0°F1.1°C 99% 1.2 mph WNW1.9 kmh WNW -- 29.01 in982.4 mb - 0.00 in0.0 mm 0.18 in4.6 mm
08:00 PM 33.3°F0.7°C 32.3°F0.2°C 96% 2.3 mph NW3.7 kmh NW 3.5 mph5.6 kmh 29.04 in983.4 mb - 0.00 in0.0 mm 0.18 in4.6 mm
09:00 PM 32.5°F0.3°C 32.3°F0.2°C 99% 2.3 mph W3.7 kmh W 3.5 mph5.6 kmh 29.07 in984.4 mb - 0.00 in0.0 mm 0.18 in4.6 mm
10:00 PM 31.5°F-0.3°C 31.0°F-0.6°C 98% 3.5 mph NW5.6 kmh NW 4.6 mph7.4 kmh 29.12 in986.1 mb - 0.00 in0.0 mm 0.18 in4.6 mm
11:00 PM 29.7°F-1.3°C 29.2°F-1.6°C 98% Calm Calm 1.2 mph1.9 kmh 29.16 in987.5 mb - 0.00 in0.0 mm 0.18 in4.6 mm